createdAt,value
2018-04-13T00:00:43.093Z,18.92
2018-04-13T00:01:43.111Z,18.86
2018-04-13T00:02:42.882Z,18.78
2018-04-13T00:03:43.157Z,18.8
2018-04-13T00:04:43.482Z,18.89
2018-04-13T00:05:43.458Z,18.86
2018-04-13T00:06:42.974Z,18.89
2018-04-13T00:07:43.509Z,18.86
2018-04-13T00:08:43.534Z,18.88
2018-04-13T00:09:43.049Z,18.78
2018-04-13T00:10:43.325Z,18.78
2018-04-13T00:11:43.596Z,18.75
2018-04-13T00:12:43.625Z,18.8
2018-04-13T00:13:43.399Z,18.78
2018-04-13T00:14:43.471Z,18.75
2018-04-13T00:15:43.699Z,18.74
2018-04-13T00:16:43.720Z,18.78
2018-04-13T00:17:43.489Z,18.75
2018-04-13T00:18:43.775Z,18.7
2018-04-13T00:19:43.788Z,18.77
2018-04-13T00:20:43.572Z,18.74
2018-04-13T00:21:43.328Z,18.8
2018-04-13T00:22:43.859Z,18.77
2018-04-13T00:23:43.886Z,18.66
2018-04-13T00:24:43.651Z,18.66
2018-04-13T00:25:43.932Z,18.63
2018-04-13T00:26:43.952Z,18.58
2018-04-13T00:27:43.975Z,18.62
2018-04-13T00:28:43.746Z,18.63
2018-04-13T00:29:44.094Z,18.59
2018-04-13T00:30:43.535Z,18.58
2018-04-13T00:31:44.073Z,18.63
2018-04-13T00:32:44.099Z,18.6
2018-04-13T00:33:44.117Z,18.47
2018-04-13T00:34:43.934Z,18.52
2018-04-13T00:35:44.157Z,18.45
2018-04-13T00:36:44.185Z,18.49
2018-04-13T00:37:44.209Z,18.49
2018-04-13T00:38:43.974Z,18.43
2018-04-13T00:39:44.256Z,18.43
2018-04-13T00:40:44.011Z,18.38
2018-04-13T00:41:44.036Z,18.37
2018-04-13T00:42:44.311Z,18.43
2018-04-13T00:43:44.334Z,18.43
2018-04-13T00:44:44.117Z,18.44
2018-04-13T00:45:44.126Z,18.43
2018-04-13T00:46:44.405Z,18.29
2018-04-13T00:47:44.177Z,18.41
2018-04-13T00:48:44.452Z,18.29
2018-04-13T00:49:44.519Z,18.31
2018-04-13T00:50:44.491Z,18.29
2018-04-13T00:51:44.532Z,18.15
2018-04-13T00:52:44.304Z,18.19
2018-04-13T00:53:44.327Z,18.18
2018-04-13T00:54:44.353Z,18.18
2018-04-13T00:55:44.626Z,18.07
2018-04-13T00:56:44.393Z,18.16
2018-04-13T00:57:44.667Z,18.05
2018-04-13T00:58:44.688Z,17.98
2018-04-13T00:59:44.715Z,17.76
2018-04-13T01:00:44.736Z,17.78
2018-04-13T01:01:44.755Z,17.76
2018-04-13T01:02:44.776Z,17.72
2018-04-13T01:03:44.811Z,17.72
2018-04-13T01:04:44.876Z,17.7
2018-04-13T01:05:44.851Z,17.86
2018-04-13T01:06:44.619Z,17.89
2018-04-13T01:07:44.894Z,17.79
2018-04-13T01:08:45.090Z,17.85
2018-04-13T01:09:44.685Z,17.8
2018-04-13T01:10:44.973Z,17.74
2018-04-13T01:11:44.733Z,17.74
2018-04-13T01:12:45.011Z,17.74
2018-04-13T01:13:45.033Z,17.64
2018-04-13T01:14:45.048Z,17.67
2018-04-13T01:15:44.839Z,17.65
2018-04-13T01:16:44.586Z,17.71
2018-04-13T01:17:44.865Z,17.71
2018-04-13T01:18:44.888Z,17.57
2018-04-13T01:19:45.217Z,17.67
2018-04-13T01:20:44.935Z,17.7
2018-04-13T01:21:45.211Z,17.57
2018-04-13T01:22:44.728Z,17.56
2018-04-13T01:23:45.257Z,17.67
2018-04-13T01:24:45.313Z,17.68
2018-04-13T01:25:45.300Z,17.68
2018-04-13T01:26:45.322Z,17.67
2018-04-13T01:27:45.341Z,17.74
2018-04-13T01:28:45.365Z,17.71
2018-04-13T01:29:45.392Z,17.82
2018-04-13T01:30:45.158Z,17.68
2018-04-13T01:31:45.184Z,17.71
2018-04-13T01:32:45.206Z,17.72
2018-04-13T01:33:45.490Z,17.74
2018-04-13T01:34:45.499Z,17.71
2018-04-13T01:35:45.282Z,17.76
2018-04-13T01:36:45.595Z,17.67
2018-04-13T01:37:45.565Z,17.6
2018-04-13T01:38:45.338Z,17.65
2018-04-13T01:39:45.617Z,17.52
2018-04-13T01:40:45.405Z,17.48
2018-04-13T01:41:45.658Z,17.56
2018-04-13T01:42:45.194Z,17.64
2018-04-13T01:43:45.464Z,17.52
2018-04-13T01:44:45.721Z,17.65
2018-04-13T01:45:45.753Z,17.67
2018-04-13T01:46:45.519Z,17.68
2018-04-13T01:47:45.790Z,17.67
2018-04-13T01:48:45.812Z,17.56
2018-04-13T01:49:45.835Z,17.63
2018-04-13T01:50:45.856Z,17.51
2018-04-13T01:51:45.679Z,17.46
2018-04-13T01:52:45.398Z,17.36
2018-04-13T01:53:45.930Z,17.39
2018-04-13T01:54:45.957Z,17.31
2018-04-13T01:55:45.970Z,17.24
2018-04-13T01:56:45.992Z,17.27
2018-04-13T01:57:46.022Z,17.08
2018-04-13T01:58:46.038Z,17.11
2018-04-13T01:59:46.059Z,17.12
2018-04-13T02:00:46.144Z,17.05
2018-04-13T02:01:46.123Z,17.14
2018-04-13T02:02:45.889Z,17.09
2018-04-13T02:03:46.158Z,17.19
2018-04-13T02:04:45.917Z,17.23
2018-04-13T02:05:45.943Z,17.24
2018-04-13T02:06:45.760Z,17.31
2018-04-13T02:07:46.240Z,17.31
2018-04-13T02:08:46.267Z,17.42
2018-04-13T02:09:46.313Z,17.34
2018-04-13T02:10:46.314Z,17.41
2018-04-13T02:11:46.078Z,17.33
2018-04-13T02:12:46.108Z,17.38
2018-04-13T02:13:45.868Z,17.39
2018-04-13T02:14:46.397Z,17.44
2018-04-13T02:15:46.419Z,17.42
2018-04-13T02:16:46.189Z,17.49
2018-04-13T02:17:46.468Z,17.41
2018-04-13T02:18:46.514Z,17.38
2018-04-13T02:19:46.515Z,17.36
2018-04-13T02:20:46.551Z,17.26
2018-04-13T02:21:46.351Z,17.24
2018-04-13T02:22:46.575Z,17.15
2018-04-13T02:23:46.606Z,17.16
2018-04-13T02:24:46.368Z,16.99
2018-04-13T02:25:46.647Z,16.87
2018-04-13T02:26:46.410Z,16.75
2018-04-13T02:27:46.695Z,16.74
2018-04-13T02:28:46.459Z,16.66
2018-04-13T02:29:46.477Z,16.64
2018-04-13T02:30:46.757Z,16.61
2018-04-13T02:31:46.566Z,16.6
2018-04-13T02:32:46.814Z,16.56
2018-04-13T02:33:46.812Z,16.6
2018-04-13T02:34:46.332Z,16.68
2018-04-13T02:35:46.859Z,16.66
2018-04-13T02:36:46.892Z,16.6
2018-04-13T02:37:46.683Z,16.65
2018-04-13T02:38:46.925Z,16.65
2018-04-13T02:39:46.437Z,16.65
2018-04-13T02:40:46.959Z,16.65
2018-04-13T02:41:46.737Z,16.39
2018-04-13T02:42:47.023Z,16.39
2018-04-13T02:43:47.046Z,16.49
2018-04-13T02:44:47.065Z,16.42
2018-04-13T02:45:46.836Z,16.33
2018-04-13T02:46:47.191Z,16.46
2018-04-13T02:47:47.139Z,16.5
2018-04-13T02:48:46.906Z,16.49
2018-04-13T02:49:46.666Z,16.57
2018-04-13T02:50:47.198Z,16.66
2018-04-13T02:51:47.217Z,16.69
2018-04-13T02:52:47.244Z,16.72
2018-04-13T02:53:47.259Z,16.68
2018-04-13T02:54:47.283Z,16.69
2018-04-13T02:55:47.319Z,16.61
2018-04-13T02:56:47.336Z,16.58
2018-04-13T02:57:47.335Z,16.24
2018-04-13T02:58:47.102Z,15.98
2018-04-13T02:59:47.127Z,16.04
2018-04-13T03:00:47.428Z,16.12
2018-04-13T03:01:47.221Z,16.29
2018-04-13T03:02:47.442Z,16.39
2018-04-13T03:03:47.463Z,16.39
2018-04-13T03:04:47.241Z,16.36
2018-04-13T03:05:47.512Z,16.35
2018-04-13T03:06:47.530Z,16.42
2018-04-13T03:07:47.316Z,16.39
2018-04-13T03:08:47.591Z,16.39
2018-04-13T03:09:47.608Z,16.42
2018-04-13T03:10:47.382Z,16.43
2018-04-13T03:11:47.663Z,16.43
2018-04-13T03:12:47.165Z,16.42
2018-04-13T03:13:47.443Z,16.54
2018-04-13T03:14:47.209Z,16.66
2018-04-13T03:15:47.484Z,16.57
2018-04-13T03:16:47.815Z,16.56
2018-04-13T03:17:47.529Z,16.53
2018-04-13T03:18:47.566Z,16.75
2018-04-13T03:19:47.828Z,16.64
2018-04-13T03:20:47.340Z,16.53
2018-04-13T03:21:47.872Z,16.64
2018-04-13T03:22:47.890Z,16.65
2018-04-13T03:23:47.936Z,16.61
2018-04-13T03:24:47.685Z,16.71
2018-04-13T03:25:47.701Z,16.57
2018-04-13T03:26:47.723Z,16.72
2018-04-13T03:27:47.744Z,16.56
2018-04-13T03:28:47.768Z,16.6
2018-04-13T03:29:48.052Z,16.65
2018-04-13T03:30:48.067Z,16.79
2018-04-13T03:31:48.165Z,16.46
2018-04-13T03:32:48.110Z,16.51
2018-04-13T03:33:47.884Z,16.47
2018-04-13T03:34:47.651Z,16.5
2018-04-13T03:35:47.925Z,16.26
2018-04-13T03:36:47.944Z,15.98
2018-04-13T03:37:48.225Z,16
2018-04-13T03:38:47.987Z,16
2018-04-13T03:39:48.267Z,16.04
2018-04-13T03:40:48.297Z,16.13
2018-04-13T03:41:48.063Z,16.16
2018-04-13T03:42:48.075Z,16.21
2018-04-13T03:43:47.841Z,16.16
2018-04-13T03:44:48.372Z,16.2
2018-04-13T03:45:48.140Z,16.35
2018-04-13T03:46:48.468Z,16.17
2018-04-13T03:47:48.439Z,16.16
2018-04-13T03:48:48.458Z,16.15
2018-04-13T03:49:48.484Z,15.98
2018-04-13T03:50:48.501Z,16.01
2018-04-13T03:51:48.522Z,15.98
2018-04-13T03:52:48.290Z,15.83
2018-04-13T03:53:48.309Z,15.8
2018-04-13T03:54:48.591Z,15.79
2018-04-13T03:55:48.356Z,15.95
2018-04-13T03:56:48.677Z,16.01
2018-04-13T03:57:48.395Z,15.98
2018-04-13T03:58:48.695Z,16.02
2018-04-13T03:59:48.433Z,15.9
2018-04-13T04:00:48.714Z,15.94
2018-04-13T04:01:48.786Z,15.94
2018-04-13T04:02:48.510Z,15.95
2018-04-13T04:03:48.783Z,15.98
2018-04-13T04:04:48.560Z,15.92
2018-04-13T04:05:48.825Z,15.97
2018-04-13T04:06:48.592Z,15.76
2018-04-13T04:07:48.867Z,15.82
2018-04-13T04:08:48.887Z,15.86
2018-04-13T04:09:48.654Z,16.04
2018-04-13T04:10:48.934Z,16.01
2018-04-13T04:11:48.950Z,15.94
2018-04-13T04:12:48.717Z,16.05
2018-04-13T04:13:48.993Z,16.08
2018-04-13T04:14:48.760Z,15.98
2018-04-13T04:15:48.784Z,16
2018-04-13T04:16:49.110Z,16
2018-04-13T04:17:49.080Z,15.98
2018-04-13T04:18:48.845Z,15.91
2018-04-13T04:19:49.119Z,15.82
2018-04-13T04:20:49.141Z,15.9
2018-04-13T04:21:48.919Z,15.95
2018-04-13T04:22:48.928Z,15.98
2018-04-13T04:23:49.202Z,15.9
2018-04-13T04:24:48.979Z,16.01
2018-04-13T04:25:49.249Z,16.04
2018-04-13T04:26:49.071Z,16.01
2018-04-13T04:27:49.315Z,15.98
2018-04-13T04:28:49.328Z,16.09
2018-04-13T04:29:49.339Z,16.15
2018-04-13T04:30:49.362Z,16.16
2018-04-13T04:31:49.380Z,16.15
2018-04-13T04:32:49.144Z,16
2018-04-13T04:33:49.422Z,15.98
2018-04-13T04:34:49.457Z,16.04
2018-04-13T04:35:49.215Z,15.98
2018-04-13T04:36:49.238Z,15.97
2018-04-13T04:37:49.525Z,15.86
2018-04-13T04:38:49.532Z,15.82
2018-04-13T04:39:49.301Z,15.86
2018-04-13T04:40:49.580Z,15.91
2018-04-13T04:41:49.651Z,15.9
2018-04-13T04:42:49.367Z,16.01
2018-04-13T04:43:49.393Z,16.02
2018-04-13T04:44:49.663Z,15.98
2018-04-13T04:45:49.704Z,15.8
2018-04-13T04:46:49.750Z,15.92
2018-04-13T04:47:49.734Z,15.86
2018-04-13T04:48:49.497Z,15.91
2018-04-13T04:49:49.773Z,15.83
2018-04-13T04:50:49.794Z,15.76
2018-04-13T04:51:49.814Z,15.68
2018-04-13T04:52:49.581Z,15.64
2018-04-13T04:53:49.346Z,15.79
2018-04-13T04:54:49.875Z,15.75
2018-04-13T04:55:49.894Z,15.72
2018-04-13T04:56:49.918Z,15.59
2018-04-13T04:57:49.689Z,15.54
2018-04-13T04:58:49.503Z,15.57
2018-04-13T04:59:49.726Z,15.67
2018-04-13T05:00:50.006Z,15.57
2018-04-13T05:01:50.028Z,15.58
2018-04-13T05:02:50.045Z,15.65
2018-04-13T05:03:49.914Z,15.51
2018-04-13T05:04:49.841Z,15.55
2018-04-13T05:05:50.119Z,15.57
2018-04-13T05:06:50.142Z,15.37
2018-04-13T05:07:50.165Z,15.4
2018-04-13T05:08:50.203Z,15.39
2018-04-13T05:09:50.200Z,15.35
2018-04-13T05:10:50.228Z,15.29
2018-04-13T05:11:50.016Z,15.36
2018-04-13T05:12:50.266Z,15.29
2018-04-13T05:13:50.333Z,15.36
2018-04-13T05:14:50.312Z,15.27
2018-04-13T05:15:50.068Z,15.19
2018-04-13T05:16:50.346Z,15.18
2018-04-13T05:17:50.364Z,15.21
2018-04-13T05:18:50.400Z,15.22
2018-04-13T05:19:50.414Z,15.27
2018-04-13T05:20:50.436Z,15.22
2018-04-13T05:21:50.203Z,15.22
2018-04-13T05:22:50.476Z,15.04
2018-04-13T05:23:50.505Z,15
2018-04-13T05:24:50.526Z,14.88
2018-04-13T05:25:50.550Z,14.94
2018-04-13T05:26:50.311Z,15.04
2018-04-13T05:27:50.330Z,15
2018-04-13T05:28:50.657Z,14.89
2018-04-13T05:29:50.371Z,14.77
2018-04-13T05:30:50.649Z,14.77
2018-04-13T05:31:50.159Z,14.69
2018-04-13T05:32:50.435Z,14.7
2018-04-13T05:33:50.480Z,14.78
2018-04-13T05:34:50.730Z,14.85
2018-04-13T05:35:50.755Z,14.85
2018-04-13T05:36:50.775Z,14.84
2018-04-13T05:37:50.799Z,14.7
2018-04-13T05:38:50.817Z,14.63
2018-04-13T05:39:50.585Z,14.63
2018-04-13T05:40:50.859Z,14.65
2018-04-13T05:41:50.883Z,14.69
2018-04-13T05:42:50.902Z,14.78
2018-04-13T05:43:50.977Z,14.73
2018-04-13T05:44:50.685Z,14.72
2018-04-13T05:45:50.960Z,14.7
2018-04-13T05:46:50.986Z,14.65
2018-04-13T05:47:51.001Z,14.78
2018-04-13T05:48:51.026Z,14.58
2018-04-13T05:49:51.039Z,14.6
2018-04-13T05:50:51.102Z,14.72
2018-04-13T05:51:50.830Z,14.59
2018-04-13T05:52:51.109Z,14.53
2018-04-13T05:53:51.178Z,14.65
2018-04-13T05:54:51.148Z,14.72
2018-04-13T05:55:51.171Z,14.78
2018-04-13T05:56:50.936Z,14.82
2018-04-13T05:57:50.705Z,14.81
2018-04-13T05:58:51.282Z,14.78
2018-04-13T05:59:51.257Z,14.79
2018-04-13T06:00:51.014Z,14.86
2018-04-13T06:01:51.041Z,14.92
2018-04-13T06:02:51.312Z,14.91
2018-04-13T06:03:51.338Z,14.91
2018-04-13T06:04:51.356Z,14.89
2018-04-13T06:05:51.378Z,14.99
2018-04-13T06:06:51.404Z,14.94
2018-04-13T06:07:51.184Z,15.11
2018-04-13T06:08:51.435Z,15.21
2018-04-13T06:09:51.463Z,15.29
2018-04-13T06:10:51.230Z,15.27
2018-04-13T06:11:51.509Z,15.33
2018-04-13T06:12:51.512Z,15.27
2018-04-13T06:13:51.334Z,15.24
2018-04-13T06:14:51.548Z,15.17
2018-04-13T06:15:51.575Z,15.33
2018-04-13T06:16:51.339Z,15.43
2018-04-13T06:17:51.359Z,15.54
2018-04-13T06:18:51.720Z,15.59
2018-04-13T06:19:51.414Z,15.64
2018-04-13T06:20:51.686Z,15.65
2018-04-13T06:21:51.455Z,15.62
2018-04-13T06:22:51.741Z,15.67
2018-04-13T06:23:51.756Z,15.68
2018-04-13T06:24:51.777Z,15.72
2018-04-13T06:25:51.799Z,15.83
2018-04-13T06:26:51.568Z,15.79
2018-04-13T06:27:51.590Z,15.79
2018-04-13T06:28:51.910Z,15.77
2018-04-13T06:29:51.906Z,15.73
2018-04-13T06:30:51.911Z,15.79
2018-04-13T06:31:51.926Z,15.94
2018-04-13T06:32:51.942Z,15.91
2018-04-13T06:33:51.976Z,16.04
2018-04-13T06:34:51.756Z,15.94
2018-04-13T06:35:52.052Z,16.12
2018-04-13T06:36:55.045Z,16.08
2018-04-13T06:37:51.789Z,16.13
2018-04-13T06:38:51.814Z,16.2
2018-04-13T06:39:52.086Z,16.21
2018-04-13T06:40:52.111Z,16.16
2018-04-13T06:41:52.133Z,16.24
2018-04-13T06:42:52.154Z,16.23
2018-04-13T06:43:52.222Z,16.13
2018-04-13T06:44:52.207Z,16.2
2018-04-13T06:45:52.230Z,16.21
2018-04-13T06:46:52.253Z,16.17
2018-04-13T06:47:52.273Z,16.05
2018-04-13T06:48:52.325Z,16.08
2018-04-13T06:49:52.317Z,16.09
2018-04-13T06:50:52.336Z,15.97
2018-04-13T06:51:52.357Z,16
2018-04-13T06:52:52.139Z,15.98
2018-04-13T06:53:52.405Z,16.02
2018-04-13T06:54:52.425Z,16.16
2018-04-13T06:55:52.191Z,16.23
2018-04-13T06:56:52.524Z,16.21
2018-04-13T06:57:52.247Z,16.32
2018-04-13T06:58:52.562Z,16.32
2018-04-13T06:59:52.020Z,16.41
2018-04-13T07:00:52.049Z,16.54
2018-04-13T07:01:52.626Z,16.61
2018-04-13T07:02:52.661Z,16.68
2018-04-13T07:03:52.620Z,16.65
2018-04-13T07:04:52.407Z,16.65
2018-04-13T07:05:52.678Z,16.56
2018-04-13T07:06:52.691Z,16.72
2018-04-13T07:07:52.512Z,16.79
2018-04-13T07:08:52.226Z,16.83
2018-04-13T07:09:52.762Z,16.76
2018-04-13T07:10:52.779Z,16.64
2018-04-13T07:11:52.802Z,16.64
2018-04-13T07:12:52.821Z,16.64
2018-04-13T07:13:52.892Z,16.76
2018-04-13T07:14:52.614Z,16.75
2018-04-13T07:15:52.383Z,16.84
2018-04-13T07:16:52.915Z,16.66
2018-04-13T07:17:52.938Z,16.65
2018-04-13T07:18:52.958Z,16.56
2018-04-13T07:19:52.983Z,16.47
2018-04-13T07:20:52.777Z,16.57
2018-04-13T07:21:53.023Z,16.53
2018-04-13T07:22:52.794Z,16.65
2018-04-13T07:23:54.126Z,16.64
2018-04-13T07:24:53.120Z,16.72
2018-04-13T07:25:52.862Z,16.71
2018-04-13T07:26:53.139Z,16.66
2018-04-13T07:27:53.154Z,16.72
2018-04-13T07:28:53.235Z,16.83
2018-04-13T07:29:53.211Z,16.89
2018-04-13T07:30:52.977Z,17.08
2018-04-13T07:31:53.252Z,17.02
2018-04-13T07:32:53.278Z,17.06
2018-04-13T07:33:53.189Z,17.26
2018-04-13T07:34:53.064Z,16.99
2018-04-13T07:35:53.340Z,16.9
2018-04-13T07:36:53.113Z,17.04
2018-04-13T07:37:53.140Z,17.23
2018-04-13T07:38:53.164Z,17.24
2018-04-13T07:39:53.433Z,17.08
2018-04-13T07:40:53.455Z,17.24
2018-04-13T07:41:53.493Z,17.44
2018-04-13T07:42:53.498Z,17.41
2018-04-13T07:43:53.271Z,17.74
2018-04-13T07:44:53.654Z,17.68
2018-04-13T07:45:53.314Z,17.67
2018-04-13T07:46:53.616Z,17.51
2018-04-13T07:47:53.615Z,17.59
2018-04-13T07:48:53.182Z,17.79
2018-04-13T07:49:53.826Z,17.76
2018-04-13T07:50:53.556Z,17.52
2018-04-13T07:51:53.198Z,17.56
2018-04-13T07:52:53.474Z,17.64
2018-04-13T07:53:53.500Z,17.71
2018-04-13T07:54:53.521Z,17.9
2018-04-13T07:55:53.798Z,17.74
2018-04-13T07:56:53.570Z,17.67
2018-04-13T07:57:53.592Z,17.83
2018-04-13T07:58:53.615Z,17.86
2018-04-13T07:59:54.050Z,17.7
2018-04-13T08:00:53.682Z,17.7
2018-04-13T08:01:53.686Z,17.72
2018-04-13T08:02:53.455Z,17.87
2018-04-13T08:03:54.039Z,17.85
2018-04-13T08:04:53.754Z,17.76
2018-04-13T08:05:54.030Z,17.92
2018-04-13T08:06:53.802Z,18.05
2018-04-13T08:07:53.839Z,18.05
2018-04-13T08:08:53.856Z,18.07
2018-04-13T08:09:53.870Z,18.16
2018-04-13T08:10:54.156Z,18.19
2018-04-13T08:11:53.668Z,18.15
2018-04-13T08:12:54.492Z,18.23
2018-04-13T08:13:54.861Z,18.29
2018-04-13T08:14:54.249Z,18.47
2018-04-13T08:15:54.432Z,18.63
2018-04-13T08:16:54.297Z,18.65
2018-04-13T08:17:54.383Z,18.77
2018-04-13T08:18:54.138Z,18.86
2018-04-13T08:19:54.365Z,18.95
2018-04-13T08:20:54.136Z,18.95
2018-04-13T08:21:54.402Z,18.93
2018-04-13T08:22:54.196Z,18.84
2018-04-13T08:23:54.450Z,18.71
2018-04-13T08:24:54.220Z,18.55
2018-04-13T08:25:54.500Z,18.68
2018-04-13T08:26:54.524Z,18.56
2018-04-13T08:27:54.548Z,18.74
2018-04-13T08:28:54.065Z,18.84
2018-04-13T08:29:54.393Z,18.88
2018-04-13T08:30:54.378Z,18.96
2018-04-13T08:31:54.645Z,19.12
2018-04-13T08:32:54.446Z,19.14
2018-04-13T08:33:54.492Z,18.89
2018-04-13T08:34:54.481Z,19.07
2018-04-13T08:35:54.500Z,19.12
2018-04-13T08:36:54.554Z,18.83
2018-04-13T08:37:54.884Z,18.7
2018-04-13T08:38:54.576Z,18.74
2018-04-13T08:39:54.908Z,18.75
2018-04-13T08:40:54.623Z,18.75
2018-04-13T08:41:54.897Z,18.83
2018-04-13T08:42:54.404Z,18.81
2018-04-13T08:43:54.944Z,18.84
2018-04-13T08:44:54.704Z,18.96
2018-04-13T08:45:54.730Z,18.95
2018-04-13T08:46:54.760Z,19.09
2018-04-13T08:47:54.804Z,19.14
2018-04-13T08:48:55.579Z,18.99
2018-04-13T08:49:55.099Z,18.93
2018-04-13T08:50:55.130Z,19.07
2018-04-13T08:51:55.162Z,18.77
2018-04-13T08:52:55.241Z,18.74
2018-04-13T08:53:55.044Z,18.92
2018-04-13T08:54:55.240Z,18.99
2018-04-13T08:55:55.276Z,18.98
2018-04-13T08:56:55.154Z,18.99
2018-04-13T08:57:54.782Z,18.93
2018-04-13T08:58:55.320Z,19.07
2018-04-13T08:59:55.087Z,19.16
2018-04-13T09:00:55.156Z,19.41
2018-04-13T09:01:55.391Z,19.3
2018-04-13T09:02:55.413Z,19.15
2018-04-13T09:03:55.491Z,19.16
2018-04-13T09:04:55.457Z,19.14
2018-04-13T09:05:55.482Z,19.12
2018-04-13T09:06:55.271Z,19.09
2018-04-13T09:07:55.025Z,19.02
2018-04-13T09:08:55.305Z,18.9
2018-04-13T09:09:55.328Z,19
2018-04-13T09:10:55.353Z,18.9
2018-04-13T09:11:55.124Z,18.74
2018-04-13T09:12:55.403Z,19
2018-04-13T09:13:55.538Z,18.77
2018-04-13T09:14:55.704Z,18.65
2018-04-13T09:15:55.735Z,18.63
2018-04-13T09:16:55.761Z,18.66
2018-04-13T09:17:55.275Z,18.74
2018-04-13T09:18:55.864Z,19.02
2018-04-13T09:19:55.577Z,18.93
2018-04-13T09:20:56.041Z,19.19
2018-04-13T09:21:55.880Z,19.51
2018-04-13T09:22:55.911Z,19.69
2018-04-13T09:23:55.425Z,19.79
2018-04-13T09:24:55.953Z,19.77
2018-04-13T09:25:55.473Z,19.89
2018-04-13T09:26:55.996Z,20.09
2018-04-13T09:27:56.042Z,20.24
2018-04-13T09:28:55.801Z,20.31
2018-04-13T09:29:56.074Z,20.58
2018-04-13T09:30:56.121Z,20.67
2018-04-13T09:31:55.872Z,20.8
2018-04-13T09:32:56.155Z,20.85
2018-04-13T09:33:56.185Z,20.88
2018-04-13T09:34:55.957Z,20.96
2018-04-13T09:35:56.306Z,20.81
2018-04-13T09:36:56.265Z,21.02
2018-04-13T09:37:56.042Z,21.05
2018-04-13T09:38:56.373Z,20.95
2018-04-13T09:39:56.344Z,20.78
2018-04-13T09:40:56.367Z,20.62
2018-04-13T09:41:56.145Z,20.43
2018-04-13T09:42:56.175Z,20.5
2018-04-13T09:43:56.564Z,20.43
2018-04-13T09:44:56.470Z,20.48
2018-04-13T09:45:55.989Z,20.47
2018-04-13T09:46:56.269Z,20.31
2018-04-13T09:47:56.292Z,20.18
2018-04-13T09:48:56.569Z,20.22
2018-04-13T09:49:56.608Z,20.24
2018-04-13T09:50:56.629Z,20.31
2018-04-13T09:51:56.659Z,20.4
2018-04-13T09:52:56.435Z,20.43
2018-04-13T09:53:56.758Z,20.18
2018-04-13T09:54:56.747Z,20.1
2018-04-13T09:55:56.509Z,20.09
2018-04-13T09:56:56.787Z,20.22
2018-04-13T09:57:56.305Z,20.36
2018-04-13T09:58:56.837Z,20.36
2018-04-13T09:59:56.859Z,20.59
2018-04-13T10:00:56.654Z,20.56
2018-04-13T10:01:56.959Z,20.32
2018-04-13T10:02:56.431Z,20.36
2018-04-13T10:03:56.714Z,20.22
2018-04-13T10:04:57.001Z,20.41
2018-04-13T10:05:57.016Z,20.39
2018-04-13T10:06:56.789Z,20.56
2018-04-13T10:07:57.087Z,20.84
2018-04-13T10:08:56.890Z,21.17
2018-04-13T10:09:56.861Z,21.4
2018-04-13T10:10:56.886Z,21.8
2018-04-13T10:11:57.167Z,21.76
2018-04-13T10:12:56.689Z,21.95
2018-04-13T10:13:57.225Z,22.02
2018-04-13T10:14:56.741Z,22.14
2018-04-13T10:15:57.298Z,22.22
2018-04-13T10:16:57.304Z,22.29
2018-04-13T10:17:57.327Z,22.25
2018-04-13T10:18:57.101Z,22.02
2018-04-13T10:19:57.388Z,21.75
2018-04-13T10:20:57.165Z,22.08
2018-04-13T10:21:57.185Z,21.83
2018-04-13T10:22:57.464Z,22.28
2018-04-13T10:23:57.539Z,22.59
2018-04-13T10:24:57.517Z,22.51
2018-04-13T10:25:57.291Z,22.41
2018-04-13T10:26:57.415Z,22.02
2018-04-13T10:27:57.350Z,21.73
2018-04-13T10:28:57.378Z,21.73
2018-04-13T10:29:57.664Z,22
2018-04-13T10:30:57.685Z,22.41
2018-04-13T10:31:57.483Z,22.35
2018-04-13T10:32:57.731Z,22.5
2018-04-13T10:33:57.757Z,22.59
2018-04-13T10:34:57.786Z,21.93
2018-04-13T10:35:57.828Z,22.11
2018-04-13T10:36:57.366Z,22.51
2018-04-13T10:37:57.890Z,22.85
2018-04-13T10:38:57.461Z,23.18
2018-04-13T10:39:57.952Z,23.61
2018-04-13T10:40:57.980Z,23.54
2018-04-13T10:41:58.004Z,24.08
2018-04-13T10:42:57.783Z,24.53
2018-04-13T10:43:58.070Z,25.06
2018-04-13T10:44:57.848Z,25.13
2018-04-13T10:45:58.121Z,25.13
2018-04-13T10:46:57.898Z,25.69
2018-04-13T10:47:58.182Z,25.93
2018-04-13T10:48:58.210Z,26.22
2018-04-13T10:49:58.242Z,26.4
2018-04-13T10:50:58.280Z,26.6
2018-04-13T10:51:58.317Z,26.92
2018-04-13T10:52:58.335Z,26.09
2018-04-13T10:53:58.164Z,25.41
2018-04-13T10:54:58.397Z,24.92
2018-04-13T10:55:58.162Z,24.42
2018-04-13T10:56:57.950Z,23.88
2018-04-13T10:57:58.487Z,23.81
2018-04-13T10:58:58.566Z,24.02
2018-04-13T10:59:58.555Z,24.78
2018-04-13T11:00:58.579Z,24.98
2018-04-13T11:01:58.606Z,25.29
2018-04-13T11:02:58.632Z,25.9
2018-04-13T11:03:58.660Z,26.13
2018-04-13T11:04:58.695Z,26.33
2018-04-13T11:05:58.728Z,25.98
2018-04-13T11:06:58.501Z,25.88
2018-04-13T11:07:58.535Z,25.23
2018-04-13T11:08:58.814Z,24.42
2018-04-13T11:09:58.859Z,23.68
2018-04-13T11:10:58.878Z,23.51
2018-04-13T11:11:58.910Z,23.96
2018-04-13T11:12:58.937Z,23.95
2018-04-13T11:13:58.504Z,24.28
2018-04-13T11:14:58.738Z,24.33
2018-04-13T11:15:59.022Z,24.21
2018-04-13T11:16:58.840Z,23.73
2018-04-13T11:17:59.089Z,23.55
2018-04-13T11:18:58.598Z,23.74
2018-04-13T11:19:59.131Z,23.84
2018-04-13T11:20:58.656Z,23.96
2018-04-13T11:21:59.193Z,24.2
2018-04-13T11:22:59.217Z,24.42
2018-04-13T11:23:59.254Z,24.42
2018-04-13T11:24:59.337Z,24.13
2018-04-13T11:25:59.304Z,23.83
2018-04-13T11:26:59.335Z,23.18
2018-04-13T11:27:59.375Z,22.81
2018-04-13T11:28:59.446Z,22.55
2018-04-13T11:29:59.417Z,22.1
2018-04-13T11:30:59.194Z,22.26
2018-04-13T11:31:59.475Z,22.39
2018-04-13T11:32:59.248Z,22.53
2018-04-13T11:33:59.286Z,22.68
2018-04-13T11:34:59.553Z,22.59
2018-04-13T11:35:59.589Z,22.44
2018-04-13T11:36:59.369Z,22.48
2018-04-13T11:37:59.640Z,22.45
2018-04-13T11:38:59.213Z,22.45
2018-04-13T11:39:59.188Z,22.48
2018-04-13T11:40:59.468Z,22.45
2018-04-13T11:41:59.745Z,22.2
2018-04-13T11:42:59.521Z,21.29
2018-04-13T11:43:59.851Z,21.45
2018-04-13T11:44:59.575Z,21.52
2018-04-13T11:45:59.860Z,21.88
2018-04-13T11:46:59.877Z,22.84
2018-04-13T11:47:59.905Z,23.74
2018-04-13T11:48:59.936Z,24.13
2018-04-13T11:49:59.974Z,23.91
2018-04-13T11:50:59.996Z,23.81
2018-04-13T11:52:00.018Z,23.68
2018-04-13T11:53:00.060Z,23.58
2018-04-13T11:53:59.872Z,23.48
2018-04-13T11:55:00.106Z,23.34
2018-04-13T11:55:59.875Z,23.44
2018-04-13T11:57:00.156Z,23.48
2018-04-13T11:58:00.181Z,23.48
2018-04-13T11:58:59.970Z,23.17
2018-04-13T12:00:00.239Z,22.65
2018-04-13T12:01:00.275Z,22.25
2018-04-13T12:02:00.290Z,21.66
2018-04-13T12:03:00.064Z,21.69
2018-04-13T12:04:00.371Z,21.73
2018-04-13T12:05:00.383Z,21.93
2018-04-13T12:06:00.410Z,22.15
2018-04-13T12:06:59.932Z,22.07
2018-04-13T12:08:00.213Z,21.55
2018-04-13T12:09:00.541Z,21.46
2018-04-13T12:10:00.519Z,21.64
2018-04-13T12:11:00.281Z,21.62
2018-04-13T12:12:00.558Z,21.75
2018-04-13T12:13:00.596Z,21.91
2018-04-13T12:14:00.362Z,21.72
2018-04-13T12:15:00.415Z,21.66
2018-04-13T12:16:00.663Z,21.32
2018-04-13T12:17:00.709Z,21.54
2018-04-13T12:18:00.723Z,21.02
2018-04-13T12:19:00.746Z,20.7
2018-04-13T12:20:00.261Z,20.93
2018-04-13T12:21:00.806Z,20.58
2018-04-13T12:22:00.846Z,20.74
2018-04-13T12:23:00.854Z,20.43
2018-04-13T12:24:00.674Z,20.41
2018-04-13T12:25:00.908Z,20.44
2018-04-13T12:26:00.964Z,20.56
2018-04-13T12:27:00.960Z,20.58
2018-04-13T12:28:00.981Z,20.41
2018-04-13T12:29:01.007Z,20.47
2018-04-13T12:30:00.794Z,20.47
2018-04-13T12:31:01.045Z,20.24
2018-04-13T12:32:01.127Z,20.21
2018-04-13T12:33:00.857Z,20.34
2018-04-13T12:34:00.880Z,20.29
2018-04-13T12:35:01.161Z,20.19
2018-04-13T12:36:01.189Z,20.06
2018-04-13T12:37:00.963Z,19.86
2018-04-13T12:38:00.728Z,19.86
2018-04-13T12:39:01.313Z,20.02
2018-04-13T12:40:01.281Z,20.09
2018-04-13T12:41:01.311Z,20.31
2018-04-13T12:42:01.333Z,20.39
2018-04-13T12:43:01.359Z,20.24
2018-04-13T12:44:01.129Z,20.29
2018-04-13T12:45:01.412Z,20.28
2018-04-13T12:46:01.183Z,20.32
2018-04-13T12:47:01.211Z,20.36
2018-04-13T12:48:01.483Z,20.51
2018-04-13T12:49:01.297Z,20.72
2018-04-13T12:50:01.688Z,20.7
2018-04-13T12:51:01.566Z,20.65
2018-04-13T12:52:01.581Z,20.78
2018-04-13T12:53:01.724Z,20.96
2018-04-13T12:54:01.912Z,21.03
2018-04-13T12:55:02.071Z,21.5
2018-04-13T12:56:01.839Z,21.83